Time;durP1;ratioP1;P1;durP2;ratioP2;P2;SDS_P1;SDS_P2;PMS_P1;PMS_P2;Temp;Humidity;BMP_temperature;BMP_pressure;BME280_temperature;BME280_humidity;BME280_pressure;Samples;Min_cycle;Max_cycle;Signal;HPM_P1;HPM_P2
2021/09/03 00:01:13;;;;;;;49.28;24.25;;;11.00;99.90;;;;;;5044718;28;20045;-66
2021/09/03 00:03:38;;;;;;;42.22;23.98;;;11.10;99.90;;;;;;5037405;28;20042;-66
2021/09/03 00:06:04;;;;;;;44.88;23.15;;;11.10;99.90;;;;;;5043521;28;20129;-66
2021/09/03 00:08:30;;;;;;;51.95;23.55;;;11.00;99.90;;;;;;5037119;28;20045;-66
2021/09/03 00:10:56;;;;;;;49.67;24.20;;;11.00;99.90;;;;;;5042375;28;20065;-66
2021/09/03 00:13:22;;;;;;;45.33;21.95;;;11.00;99.90;;;;;;5038313;28;20048;-65
2021/09/03 00:15:48;;;;;;;53.17;23.13;;;11.00;99.90;;;;;;5038466;28;20056;-65
2021/09/03 00:18:13;;;;;;;47.42;24.20;;;11.00;99.90;;;;;;5039076;28;20041;-65
2021/09/03 00:20:39;;;;;;;47.58;23.75;;;10.90;99.90;;;;;;5036957;28;20045;-65
2021/09/03 00:23:05;;;;;;;52.67;23.13;;;11.00;99.90;;;;;;5042644;28;20049;-65
2021/09/03 00:25:30;;;;;;;55.63;25.92;;;10.90;99.90;;;;;;5040830;28;20049;-65
2021/09/03 00:27:56;;;;;;;46.80;23.65;;;10.90;99.90;;;;;;5040938;28;20045;-65
2021/09/03 00:30:22;;;;;;;52.95;25.13;;;10.90;99.90;;;;;;5033814;28;20057;-65
2021/09/03 00:32:47;;;;;;;64.10;30.05;;;10.80;99.90;;;;;;5040367;28;20044;-65
2021/09/03 00:35:13;;;;;;;60.13;28.42;;;10.90;99.90;;;;;;5032770;28;20056;-65
2021/09/03 00:37:39;;;;;;;63.03;29.67;;;10.90;99.90;;;;;;5039981;28;20044;-65
2021/09/03 00:40:06;;;;;;;62.80;27.95;;;10.90;99.90;;;;;;5031621;28;20037;-66
2021/09/03 00:42:33;;;;;;;54.13;25.70;;;11.00;99.90;;;;;;5038008;28;20049;-65
2021/09/03 00:44:59;;;;;;;57.33;26.00;;;11.00;99.90;;;;;;5030674;28;20068;-65
2021/09/03 00:47:25;;;;;;;57.60;25.30;;;10.90;99.90;;;;;;5033835;28;20516;-66
2021/09/03 00:49:50;;;;;;;87.60;33.50;;;10.80;99.90;;;;;;5072286;28;20045;-65
2021/09/03 00:52:17;;;;;;;76.18;32.17;;;10.90;99.90;;;;;;5029480;28;20042;-65
2021/09/03 00:54:43;;;;;;;75.65;29.73;;;10.90;99.90;;;;;;5036628;28;20101;-65
2021/09/03 00:57:09;;;;;;;54.70;25.73;;;10.80;99.90;;;;;;5031527;28;20081;-65
2021/09/03 00:59:35;;;;;;;58.75;28.85;;;10.90;99.90;;;;;;5039215;28;20517;-65
2021/09/03 01:02:00;;;;;;;60.28;27.20;;;10.80;99.90;;;;;;5031784;28;20061;-65
2021/09/03 01:04:26;;;;;;;68.25;29.63;;;10.80;99.90;;;;;;5038084;28;20069;-65
2021/09/03 01:06:52;;;;;;;62.10;28.40;;;10.70;99.90;;;;;;5030165;28;20048;-65
2021/09/03 01:09:18;;;;;;;64.97;28.15;;;10.70;99.90;;;;;;5037449;28;20053;-65
2021/09/03 01:11:44;;;;;;;59.85;27.58;;;10.60;99.90;;;;;;5043342;28;20077;-65
2021/09/03 01:14:10;;;;;;;61.60;27.75;;;10.50;99.90;;;;;;5035773;28;20045;-65
2021/09/03 01:16:35;;;;;;;67.25;29.15;;;10.60;99.90;;;;;;5043169;28;20046;-65
2021/09/03 01:19:01;;;;;;;62.13;26.77;;;10.60;99.90;;;;;;5035577;28;20042;-65
2021/09/03 01:21:27;;;;;;;67.90;26.73;;;10.50;99.90;;;;;;5042120;28;20105;-65
2021/09/03 01:23:53;;;;;;;54.10;23.95;;;10.40;99.90;;;;;;5042390;28;20041;-65
2021/09/03 01:26:19;;;;;;;58.17;24.83;;;10.30;99.90;;;;;;5041175;28;20132;-65
2021/09/03 01:28:48;;;;;;;62.13;24.90;;;10.30;99.90;;;;;;5035754;28;20036;-65
2021/09/03 01:31:14;;;;;;;76.80;29.70;;;10.30;99.90;;;;;;5039561;28;20076;-65
2021/09/03 01:33:40;;;;;;;67.05;27.65;;;10.20;99.90;;;;;;5036542;28;20050;-66
2021/09/03 01:36:05;;;;;;;52.63;24.63;;;10.20;99.90;;;;;;5036725;28;20064;-66
2021/09/03 01:38:32;;;;;;;66.75;26.95;;;10.20;99.90;;;;;;5038066;28;20045;-66
2021/09/03 01:40:57;;;;;;;69.50;28.80;;;10.20;99.90;;;;;;5034196;28;20046;-66
2021/09/03 01:43:23;;;;;;;76.07;30.52;;;10.10;99.90;;;;;;5038789;28;20068;-66
2021/09/03 01:45:49;;;;;;;73.35;28.48;;;10.30;99.90;;;;;;5034599;28;20076;-66
2021/09/03 01:48:14;;;;;;;73.18;30.42;;;10.40;99.90;;;;;;5040124;28;20406;-66
2021/09/03 01:50:40;;;;;;;65.25;28.95;;;10.40;99.90;;;;;;5037280;28;20142;-66
2021/09/03 01:53:06;;;;;;;70.80;31.05;;;10.50;99.90;;;;;;5055334;28;20048;-66
2021/09/03 01:55:32;;;;;;;68.75;29.27;;;10.50;99.90;;;;;;5046733;28;20049;-66
2021/09/03 01:57:59;;;;;;;84.10;31.50;;;10.40;99.90;;;;;;5065811;28;20044;-66
2021/09/03 02:00:25;;;;;;;74.13;30.60;;;10.40;99.90;;;;;;5052068;28;20579;-66
2021/09/03 02:02:51;;;;;;;71.68;31.52;;;10.30;99.90;;;;;;5060757;28;20037;-66
2021/09/03 02:05:17;;;;;;;85.68;33.58;;;10.30;99.90;;;;;;5049254;28;20457;-66
2021/09/03 02:07:43;;;;;;;75.38;31.20;;;10.30;99.90;;;;;;5057643;28;20077;-66
2021/09/03 02:10:09;;;;;;;78.55;33.10;;;10.30;99.90;;;;;;5032843;28;20048;-66
2021/09/03 02:12:35;;;;;;;78.50;33.88;;;10.30;99.90;;;;;;5056826;28;20087;-66
2021/09/03 02:15:01;;;;;;;87.03;33.65;;;10.30;99.90;;;;;;5039444;28;20033;-66
2021/09/03 02:17:27;;;;;;;64.18;28.45;;;10.20;99.90;;;;;;5055999;28;20041;-66
2021/09/03 02:19:52;;;;;;;75.50;31.73;;;10.10;99.90;;;;;;5039563;28;20087;-66
2021/09/03 02:22:18;;;;;;;54.90;26.00;;;10.00;99.90;;;;;;5051702;28;20045;-66
2021/09/03 02:24:44;;;;;;;72.15;29.73;;;10.00;99.90;;;;;;5041266;28;20042;-66
2021/09/03 02:27:09;;;;;;;81.82;30.00;;;9.90;99.90;;;;;;5055082;28;20056;-66
2021/09/03 02:29:35;;;;;;;77.70;28.95;;;10.00;99.90;;;;;;5040361;28;20050;-66
2021/09/03 02:32:01;;;;;;;90.28;30.70;;;10.00;99.90;;;;;;5053818;28;20040;-66
2021/09/03 02:34:26;;;;;;;90.18;32.10;;;10.00;99.90;;;;;;5041908;28;20054;-66
2021/09/03 02:36:52;;;;;;;89.45;32.95;;;10.00;99.90;;;;;;5041040;28;20108;-66
2021/09/03 02:39:18;;;;;;;77.15;32.47;;;10.10;99.90;;;;;;5054801;28;20076;-66
2021/09/03 02:41:43;;;;;;;87.95;32.05;;;10.30;99.90;;;;;;5043105;28;20056;-66
2021/09/03 02:44:10;;;;;;;79.57;31.25;;;10.40;99.90;;;;;;5053545;28;20478;-66
2021/09/03 02:46:36;;;;;;;83.80;31.30;;;10.40;99.90;;;;;;5046258;28;20046;-66
2021/09/03 02:49:02;;;;;;;83.80;30.58;;;10.50;99.90;;;;;;5062354;28;20075;-66
2021/09/03 02:51:28;;;;;;;64.40;26.83;;;10.50;99.90;;;;;;5050691;28;20041;-66
2021/09/03 02:53:53;;;;;;;70.45;27.30;;;10.50;99.90;;;;;;5054036;28;20084;-66
2021/09/03 02:56:19;;;;;;;61.35;25.35;;;10.50;99.90;;;;;;5042671;28;20087;-66
2021/09/03 02:58:45;;;;;;;61.20;26.60;;;10.40;99.90;;;;;;5048301;28;20030;-66
2021/09/03 03:01:10;;;;;;;60.92;24.00;;;10.40;99.90;;;;;;5056354;28;20049;-66
2021/09/03 03:03:36;;;;;;;66.72;26.25;;;10.30;99.90;;;;;;5043534;28;20042;-66
2021/09/03 03:06:02;;;;;;;73.20;26.52;;;10.20;99.90;;;;;;5056734;28;20059;-66
2021/09/03 03:08:28;;;;;;;65.28;23.83;;;10.10;99.90;;;;;;5033920;28;20038;-66
2021/09/03 03:10:53;;;;;;;59.05;22.30;;;10.00;99.90;;;;;;5053986;28;20060;-66
2021/09/03 03:13:21;;;;;;;67.95;24.88;;;9.90;99.90;;;;;;5040575;28;20041;-66
2021/09/03 03:15:49;;;;;;;61.25;24.67;;;9.80;99.90;;;;;;5054280;28;20052;-66
2021/09/03 03:18:14;;;;;;;;;;;9.80;99.90;;;;;;5038986;28;20045;-66
2021/09/03 03:20:41;;;;;;;76.85;26.90;;;;;;;;;;5052440;28;19921;-65
2021/09/03 03:23:07;;;;;;;83.68;29.92;;;9.70;99.90;;;;;;5051889;28;20081;-65
2021/09/03 03:25:33;;;;;;;73.00;26.75;;;9.60;99.90;;;;;;5049659;28;20440;-65
2021/09/03 03:27:58;;;;;;;80.00;27.40;;;9.60;99.90;;;;;;5048894;28;20095;-65
2021/09/03 03:30:24;;;;;;;71.40;24.83;;;9.70;99.90;;;;;;5037228;28;20046;-65
2021/09/03 03:32:50;;;;;;;86.28;26.83;;;9.50;99.90;;;;;;5045852;28;20038;-65
2021/09/03 03:35:15;;;;;;;63.13;24.70;;;9.50;99.90;;;;;;5041479;28;20064;-65
2021/09/03 03:37:41;;;;;;;84.68;28.08;;;9.50;99.90;;;;;;5057156;28;20523;-65
2021/09/03 03:40:08;;;;;;;85.68;27.30;;;9.50;99.90;;;;;;5038962;28;20042;-65
2021/09/03 03:42:33;;;;;;;86.30;26.17;;;9.50;99.90;;;;;;5054535;28;20630;-65
2021/09/03 03:44:59;;;;;;;76.68;24.92;;;9.50;99.90;;;;;;5042787;28;20362;-65
2021/09/03 03:47:25;;;;;;;60.15;22.88;;;9.40;99.90;;;;;;5057445;28;20037;-65
2021/09/03 03:49:50;;;;;;;70.30;26.40;;;9.40;99.90;;;;;;5042501;28;20042;-65
2021/09/03 03:52:16;;;;;;;83.82;28.15;;;9.50;99.90;;;;;;5055575;28;20048;-65
2021/09/03 03:54:42;;;;;;;71.90;25.38;;;9.60;99.90;;;;;;5050491;28;20109;-65
2021/09/03 03:57:07;;;;;;;77.82;27.02;;;9.70;99.90;;;;;;5040112;28;20046;-65
2021/09/03 03:59:33;;;;;;;76.13;28.35;;;9.70;99.90;;;;;;5050980;28;20044;-65
2021/09/03 04:01:59;;;;;;;77.38;26.38;;;9.90;99.90;;;;;;5045374;28;20046;-65
2021/09/03 04:04:25;;;;;;;78.05;28.25;;;10.10;99.90;;;;;;5037703;28;20033;-65
2021/09/03 04:06:50;;;;;;;63.70;23.90;;;9.90;99.90;;;;;;5046997;28;20128;-65
2021/09/03 04:09:16;;;;;;;57.33;24.17;;;9.80;99.90;;;;;;5038825;28;20043;-65
2021/09/03 04:11:42;;;;;;;69.95;24.35;;;9.70;99.90;;;;;;5050282;28;20042;-65
2021/09/03 04:14:10;;;;;;;52.28;22.58;;;9.70;99.90;;;;;;5047318;28;20465;-65
2021/09/03 04:16:36;;;;;;;68.20;25.63;;;9.80;99.90;;;;;;5051629;28;20045;-65
2021/09/03 04:19:01;;;;;;;80.18;26.30;;;9.90;99.90;;;;;;5042608;28;20129;-65
2021/09/03 04:21:27;;;;;;;64.90;24.52;;;10.00;99.90;;;;;;5054332;28;20042;-65
2021/09/03 04:23:53;;;;;;;68.13;26.15;;;10.10;99.90;;;;;;5041017;28;20034;-65
2021/09/03 04:26:18;;;;;;;51.85;22.80;;;10.00;99.90;;;;;;5043380;28;20038;-65
2021/09/03 04:28:44;;;;;;;59.00;22.80;;;10.00;99.90;;;;;;5039351;28;20104;-65
2021/09/03 04:31:10;;;;;;;50.85;23.13;;;9.90;99.90;;;;;;5052153;28;20063;-65
2021/09/03 04:33:36;;;;;;;75.20;23.73;;;9.80;99.90;;;;;;5036358;28;20132;-65
2021/09/03 04:36:01;;;;;;;70.25;24.33;;;9.70;99.90;;;;;;5050828;28;20179;-65
2021/09/03 04:38:28;;;;;;;68.00;23.80;;;9.60;99.90;;;;;;5063313;28;20048;-65
2021/09/03 04:40:54;;;;;;;71.68;26.38;;;9.50;99.90;;;;;;5035667;28;20053;-65
2021/09/03 04:43:20;;;;;;;65.60;25.42;;;9.70;99.90;;;;;;5052397;28;20034;-65
2021/09/03 04:45:46;;;;;;;60.53;23.85;;;9.70;99.90;;;;;;5045110;28;20048;-65
2021/09/03 04:48:13;;;;;;;85.00;29.30;;;9.70;99.90;;;;;;5041785;28;20044;-65
2021/09/03 04:50:39;;;;;;;69.13;24.13;;;9.90;99.90;;;;;;5042643;28;20499;-65
2021/09/03 04:53:05;;;;;;;75.38;26.08;;;10.00;99.90;;;;;;5058253;28;20045;-65
2021/09/03 04:55:30;;;;;;;59.00;24.65;;;10.10;99.90;;;;;;5035324;28;20562;-65
2021/09/03 04:57:56;;;;;;;69.55;25.27;;;10.20;99.90;;;;;;5048685;28;20037;-65
2021/09/03 05:00:22;;;;;;;52.17;22.15;;;10.20;99.90;;;;;;5058434;28;20045;-65
2021/09/03 05:02:48;;;;;;;56.85;24.92;;;10.10;99.90;;;;;;5064120;28;20037;-65
2021/09/03 05:05:14;;;;;;;60.80;22.95;;;10.10;99.90;;;;;;5060460;28;20060;-65
2021/09/03 05:07:40;;;;;;;52.63;21.63;;;10.10;99.90;;;;;;5045050;28;20044;-65
2021/09/03 05:10:07;;;;;;;61.58;24.33;;;10.10;99.90;;;;;;5045506;28;20051;-65
2021/09/03 05:12:34;;;;;;;58.33;22.57;;;10.30;99.90;;;;;;5044158;28;20048;-65
2021/09/03 05:15:01;;;;;;;51.60;22.85;;;10.30;99.90;;;;;;5053189;28;20042;-65
2021/09/03 05:17:27;;;;;;;65.75;24.58;;;10.30;99.90;;;;;;5038453;28;20080;-65
2021/09/03 05:19:53;;;;;;;50.00;22.40;;;10.40;99.90;;;;;;5056161;28;20045;-65
2021/09/03 05:22:18;;;;;;;56.95;22.40;;;10.40;99.90;;;;;;5042697;28;20048;-65
2021/09/03 05:24:44;;;;;;;51.35;20.88;;;10.60;99.90;;;;;;5048121;28;20327;-65
2021/09/03 05:27:10;;;;;;;43.22;19.70;;;10.60;99.90;;;;;;5037869;28;20050;-65
2021/09/03 05:29:35;;;;;;;48.17;21.10;;;10.60;99.90;;;;;;5051788;28;20029;-65
2021/09/03 05:32:01;;;;;;;39.97;19.08;;;10.60;99.90;;;;;;5056778;28;20052;-65
2021/09/03 05:34:27;;;;;;;41.00;19.33;;;10.70;99.90;;;;;;5047949;28;20514;-65
2021/09/03 05:36:53;;;;;;;47.55;20.27;;;10.70;99.90;;;;;;5053961;28;20092;-65
2021/09/03 05:39:18;;;;;;;41.78;19.17;;;10.90;99.90;;;;;;5035199;28;20437;-65
2021/09/03 05:41:44;;;;;;;45.75;19.75;;;10.90;99.90;;;;;;5041367;28;20129;-65
2021/09/03 05:44:10;;;;;;;45.42;20.55;;;11.10;99.90;;;;;;5041388;28;20038;-65
2021/09/03 05:46:35;;;;;;;46.58;21.80;;;11.20;99.90;;;;;;5058087;28;20049;-65
2021/09/03 05:49:01;;;;;;;41.20;20.25;;;11.30;99.90;;;;;;5050468;28;20045;-65
2021/09/03 05:51:27;;;;;;;39.15;18.55;;;11.30;99.90;;;;;;5055332;28;20048;-65
2021/09/03 05:53:52;;;;;;;37.58;19.17;;;11.40;99.90;;;;;;5062579;28;20125;-65
2021/09/03 05:56:18;;;;;;;48.15;20.45;;;11.50;99.90;;;;;;5043391;28;20469;-65
2021/09/03 05:58:44;;;;;;;55.90;22.88;;;11.50;99.90;;;;;;5056637;28;20041;-65
2021/09/03 06:01:09;;;;;;;42.05;20.05;;;11.60;99.90;;;;;;5034447;28;20080;-65
2021/09/03 06:03:35;;;;;;;50.67;21.30;;;11.80;99.90;;;;;;5054478;28;20035;-65
2021/09/03 06:06:00;;;;;;;42.47;19.85;;;11.70;99.90;;;;;;5038820;28;20041;-65
2021/09/03 06:08:26;;;;;;;43.40;19.92;;;11.90;99.90;;;;;;5052334;28;20105;-65
2021/09/03 06:10:52;;;;;;;41.88;19.23;;;12.00;99.90;;;;;;5051182;28;20044;-65
2021/09/03 06:13:17;;;;;;;82.85;22.95;;;12.10;99.90;;;;;;5051122;28;20386;-65
2021/09/03 06:15:43;;;;;;;62.33;20.08;;;12.10;99.90;;;;;;5062856;28;20076;-65
2021/09/03 06:18:09;;;;;;;57.78;19.90;;;12.20;99.90;;;;;;5045271;28;20083;-65
2021/09/03 06:20:34;;;;;;;77.32;21.77;;;12.30;99.90;;;;;;5061553;28;20045;-65
2021/09/03 06:23:00;;;;;;;66.25;22.25;;;12.40;99.90;;;;;;5047454;28;20037;-65
2021/09/03 06:25:26;;;;;;;66.78;21.48;;;12.50;99.90;;;;;;5049731;28;20046;-65
2021/09/03 06:27:51;;;;;;;56.03;17.92;;;12.60;99.90;;;;;;5039674;28;20042;-66
2021/09/03 06:30:18;;;;;;;56.08;20.02;;;12.70;99.90;;;;;;5059279;28;20233;-66
2021/09/03 06:32:43;;;;;;;31.65;17.88;;;12.70;99.90;;;;;;5044282;28;20088;-66
2021/09/03 06:35:09;;;;;;;30.95;15.85;;;12.80;99.90;;;;;;5057557;28;20053;-66
2021/09/03 06:37:35;;;;;;;42.88;17.33;;;13.00;99.90;;;;;;5044930;28;20045;-66
2021/09/03 06:40:02;;;;;;;42.58;17.60;;;13.10;99.90;;;;;;5051769;28;20048;-66
2021/09/03 06:42:30;;;;;;;30.27;16.67;;;13.20;99.90;;;;;;5047478;28;20107;-66
2021/09/03 06:44:56;;;;;;;36.35;16.73;;;13.20;99.90;;;;;;5049642;28;20383;-66
2021/09/03 06:47:21;;;;;;;36.25;18.13;;;13.30;99.90;;;;;;5049670;28;20037;-66
2021/09/03 06:49:47;;;;;;;35.60;16.35;;;13.50;99.90;;;;;;5044580;28;20387;-66
2021/09/03 06:52:14;;;;;;;32.25;14.85;;;13.60;99.90;;;;;;5051314;28;20042;-66
2021/09/03 06:54:40;;;;;;;35.35;15.00;;;13.70;99.90;;;;;;5037212;28;20042;-66
2021/09/03 06:57:06;;;;;;;32.85;15.23;;;13.80;99.90;;;;;;5039222;28;20053;-66
2021/09/03 06:59:32;;;;;;;23.05;14.35;;;14.00;99.90;;;;;;5055615;28;20038;-66
2021/09/03 07:01:58;;;;;;;24.90;13.77;;;14.00;99.90;;;;;;5044060;28;20056;-66
2021/09/03 07:04:24;;;;;;;31.95;12.98;;;14.10;99.90;;;;;;5057466;28;20034;-66
2021/09/03 07:06:50;;;;;;;26.33;13.38;;;14.20;99.90;;;;;;5042525;28;20041;-66
2021/09/03 07:09:17;;;;;;;27.92;13.70;;;14.20;99.90;;;;;;5055439;28;20083;-66
2021/09/03 07:11:43;;;;;;;28.80;14.97;;;14.30;99.90;;;;;;5041222;28;20172;-66
2021/09/03 07:14:08;;;;;;;28.05;12.52;;;14.40;99.90;;;;;;5054483;28;20037;-66
2021/09/03 07:16:34;;;;;;;28.90;13.90;;;14.50;99.90;;;;;;5039641;28;20045;-66
2021/09/03 07:19:03;;;;;;;30.40;14.52;;;14.50;99.90;;;;;;5053175;28;20068;-66
2021/09/03 07:21:30;;;;;;;27.33;13.40;;;14.50;99.90;;;;;;5037304;28;20065;-66
2021/09/03 07:23:57;;;;;;;22.63;13.70;;;14.60;99.90;;;;;;5051194;28;20047;-66
2021/09/03 07:26:23;;;;;;;29.77;14.10;;;14.70;99.90;;;;;;5058804;28;20042;-66
2021/09/03 07:28:49;;;;;;;27.48;13.18;;;14.70;99.90;;;;;;5048296;28;20037;-66
2021/09/03 07:31:14;;;;;;;23.45;12.85;;;14.80;99.90;;;;;;5061675;28;20045;-66
2021/09/03 07:33:40;;;;;;;24.73;14.07;;;14.80;99.90;;;;;;5046731;28;20099;-66
2021/09/03 07:36:06;;;;;;;30.25;13.75;;;14.90;99.90;;;;;;5045703;28;20076;-66
2021/09/03 07:38:33;;;;;;;23.23;12.57;;;15.00;99.90;;;;;;5045413;28;20045;-66
2021/09/03 07:40:59;;;;;;;24.42;11.85;;;15.10;99.90;;;;;;5058510;28;20049;-66
2021/09/03 07:43:25;;;;;;;28.77;12.98;;;15.10;99.90;;;;;;5044311;28;20045;-66
2021/09/03 07:45:50;;;;;;;31.42;13.50;;;15.20;99.90;;;;;;5055058;28;20037;-66
2021/09/03 07:48:16;;;;;;;23.48;14.23;;;15.30;99.90;;;;;;5039656;28;20045;-66
2021/09/03 07:50:42;;;;;;;28.52;13.15;;;15.30;99.90;;;;;;5048942;28;20045;-66
2021/09/03 07:53:08;;;;;;;22.83;13.02;;;15.40;99.90;;;;;;5040991;28;20815;-66
2021/09/03 07:55:34;;;;;;;25.77;14.35;;;15.50;99.90;;;;;;5040935;28;20100;-66
2021/09/03 07:58:04;;;;;;;23.15;12.88;;;15.70;99.90;;;;;;5060150;28;20111;-66
2021/09/03 08:00:30;;;;;;;24.75;13.60;;;15.70;99.90;;;;;;5044774;28;20104;-66
2021/09/03 08:02:56;;;;;;;23.02;14.05;;;15.80;99.90;;;;;;5058444;28;20041;-66
2021/09/03 08:05:22;;;;;;;23.73;12.98;;;16.00;99.90;;;;;;5040607;28;20064;-67
2021/09/03 08:07:48;;;;;;;22.88;11.98;;;16.00;99.90;;;;;;5056325;28;20040;-67
2021/09/03 08:10:15;;;;;;;21.08;11.85;;;16.10;99.90;;;;;;5046766;28;20061;-67
2021/09/03 08:12:41;;;;;;;22.40;11.05;;;16.10;99.90;;;;;;5052040;28;20115;-66
2021/09/03 08:15:09;;;;;;;21.00;10.77;;;16.20;99.90;;;;;;5048755;28;20064;-67
2021/09/03 08:17:35;;;;;;;20.67;10.18;;;16.20;99.90;;;;;;5046491;28;20054;-67
2021/09/03 08:20:01;;;;;;;18.35;8.82;;;16.20;99.90;;;;;;5050825;28;20054;-67
2021/09/03 08:22:27;;;;;;;19.23;9.48;;;16.20;99.90;;;;;;5033642;28;20129;-67
2021/09/03 08:24:53;;;;;;;19.77;9.63;;;16.20;99.90;;;;;;5052849;28;20030;-67
2021/09/03 08:27:19;;;;;;;20.08;9.27;;;16.40;99.90;;;;;;5038358;28;20046;-66
2021/09/03 08:29:45;;;;;;;25.65;9.40;;;16.30;99.90;;;;;;5052629;28;20038;-66
2021/09/03 08:32:12;;;;;;;20.57;9.17;;;16.40;99.90;;;;;;5037670;28;20045;-66
2021/09/03 08:34:38;;;;;;;20.95;8.80;;;16.40;99.90;;;;;;5052016;28;20529;-66
2021/09/03 08:37:04;;;;;;;11.98;7.35;;;16.40;99.90;;;;;;5057949;28;20056;-66
2021/09/03 08:39:30;;;;;;;11.27;6.75;;;16.40;99.90;;;;;;5050290;28;20036;-66
2021/09/03 08:41:56;;;;;;;14.60;7.40;;;16.50;99.90;;;;;;5060840;28;20044;-66
2021/09/03 08:44:21;;;;;;;15.38;7.60;;;16.70;99.90;;;;;;5047558;28;20055;-66
2021/09/03 08:46:48;;;;;;;15.40;7.45;;;16.60;99.90;;;;;;5056493;28;20087;-66
2021/09/03 08:49:14;;;;;;;13.23;6.80;;;16.70;99.90;;;;;;5064141;28;20571;-68
2021/09/03 08:51:39;;;;;;;14.07;7.25;;;16.70;99.90;;;;;;5089874;28;20045;-67
2021/09/03 08:54:05;;;;;;;13.80;6.80;;;16.80;99.90;;;;;;5037163;28;20085;-65
2021/09/03 08:56:32;;;;;;;12.60;6.90;;;16.90;99.90;;;;;;5047042;28;20516;-67
2021/09/03 08:58:57;;;;;;;17.52;7.32;;;17.00;99.90;;;;;;5061930;28;20045;-67
2021/09/03 09:01:23;;;;;;;17.20;7.47;;;17.10;99.90;;;;;;5047401;28;20041;-67
2021/09/03 09:03:51;;;;;;;16.48;8.00;;;17.00;99.90;;;;;;5060156;28;20048;-67
2021/09/03 09:06:22;;;;;;;21.83;8.20;;;17.00;99.90;;;;;;5030769;28;20107;-67
2021/09/03 09:09:03;;;;;;;31.83;10.27;;;17.00;99.90;;;;;;5052648;28;20041;-67
2021/09/03 09:11:30;;;;;;;19.15;7.85;;;17.10;99.90;;;;;;5043971;28;20048;-66
2021/09/03 09:14:15;;;;;;;19.45;8.07;;;17.20;99.90;;;;;;5057501;28;20049;-66
2021/09/03 09:16:41;;;;;;;11.68;6.40;;;17.20;99.90;;;;;;5074738;28;20056;-66
2021/09/03 09:19:07;;;;;;;20.38;7.75;;;17.30;99.90;;;;;;5056269;28;20041;-66
2021/09/03 09:21:36;;;;;;;15.77;7.57;;;17.40;99.90;;;;;;5040887;28;20048;-67
2021/09/03 09:24:11;;;;;;;15.82;7.07;;;17.20;99.90;;;;;;5048511;28;20097;-66
2021/09/03 09:26:48;;;;;;;15.85;7.35;;;17.20;99.90;;;;;;5036896;28;20074;-66
2021/09/03 09:29:16;;;;;;;16.00;7.80;;;17.20;99.90;;;;;;5053012;28;20111;-66
2021/09/03 09:31:43;;;;;;;12.63;7.43;;;17.20;99.90;;;;;;5038825;28;20052;-66
2021/09/03 09:34:14;;;;;;;17.65;7.95;;;17.10;99.90;;;;;;5038709;28;20536;-66
2021/09/03 09:36:40;;;;;;;16.23;7.20;;;17.20;99.90;;;;;;5035998;28;20049;-66
2021/09/03 09:39:06;;;;;;;13.93;7.50;;;17.20;99.90;;;;;;5050261;28;20041;-67
2021/09/03 09:41:32;;;;;;;16.35;8.15;;;17.10;99.90;;;;;;5035425;28;20091;-67
2021/09/03 09:43:58;;;;;;;14.35;7.03;;;17.20;99.90;;;;;;5049004;28;20044;-66
2021/09/03 09:46:28;;;;;;;21.10;7.75;;;17.30;99.90;;;;;;5061681;28;20053;-67
2021/09/03 09:49:01;;;;;;;13.98;7.80;;;17.30;99.90;;;;;;5039836;28;20080;-67
2021/09/03 09:51:32;;;;;;;16.83;8.25;;;17.30;99.90;;;;;;5041423;28;20486;-67
2021/09/03 09:54:01;;;;;;;18.90;9.05;;;17.40;99.90;;;;;;5036624;28;20040;-67
2021/09/03 09:56:30;;;;;;;18.23;8.43;;;17.50;99.90;;;;;;5047670;28;20053;-67
2021/09/03 09:58:59;;;;;;;18.10;8.50;;;17.60;99.90;;;;;;5037117;28;20362;-67
2021/09/03 10:01:25;;;;;;;20.58;9.15;;;17.50;99.90;;;;;;5049470;28;20045;-66
2021/09/03 10:03:52;;;;;;;19.73;8.95;;;17.80;99.90;;;;;;5035494;28;20042;-67
2021/09/03 10:06:20;;;;;;;17.48;8.93;;;17.90;99.90;;;;;;5040454;28;20048;-67
2021/09/03 10:08:48;;;;;;;16.35;8.85;;;18.00;99.90;;;;;;5056797;28;20101;-67
2021/09/03 10:11:20;;;;;;;16.05;9.20;;;18.20;99.90;;;;;;5036269;28;20071;-67
2021/09/03 10:13:48;;;;;;;17.08;10.25;;;18.00;99.90;;;;;;5049152;28;20120;-67
2021/09/03 10:16:14;;;;;;;21.38;10.57;;;17.80;99.90;;;;;;5048050;28;20048;-66
2021/09/03 10:18:42;;;;;;;20.48;10.40;;;17.80;99.90;;;;;;5062693;28;20060;-67
2021/09/03 10:21:08;;;;;;;15.57;10.45;;;17.80;99.90;;;;;;5047128;28;20136;-67
2021/09/03 10:23:54;;;;;;;17.95;10.48;;;17.90;99.90;;;;;;5058137;28;20053;-67
2021/09/03 10:26:31;;;;;;;16.00;10.07;;;18.10;99.90;;;;;;5045757;28;20048;-67
2021/09/03 10:29:22;;;;;;;16.63;9.95;;;18.10;99.90;;;;;;5059456;28;20057;-68
2021/09/03 10:34:40;;;;;;;18.90;10.85;;;18.00;99.90;;;;;;5059526;28;20050;-67
2021/09/03 10:37:12;;;;;;;18.67;9.93;;;17.90;99.90;;;;;;5043386;28;20089;-67
2021/09/03 10:39:48;;;;;;;17.00;11.35;;;18.10;99.90;;;;;;5057294;28;20045;-69
2021/09/03 10:45:05;;;;;;;22.20;10.32;;;18.70;99.90;;;;;;5056229;28;20038;-67
2021/09/03 10:47:31;;;;;;;22.15;10.25;;;18.80;99.90;;;;;;5042362;28;20067;-67
2021/09/03 10:49:57;;;;;;;16.27;9.70;;;18.90;99.90;;;;;;5053962;28;20049;-67
2021/09/03 10:52:23;;;;;;;14.83;8.13;;;18.70;99.90;;;;;;5035407;28;20048;-68
2021/09/03 10:54:49;;;;;;;14.25;8.30;;;18.60;99.90;;;;;;5043773;28;20045;-67
2021/09/03 10:57:18;;;;;;;14.43;7.50;;;18.60;99.90;;;;;;5058593;28;20037;-67
2021/09/03 11:00:16;;;;;;;14.00;8.70;;;18.70;99.90;;;;;;5044052;28;20087;-67
2021/09/03 11:02:42;;;;;;;13.10;7.43;;;18.80;99.90;;;;;;5057744;28;20065;-67
2021/09/03 11:05:12;;;;;;;13.05;7.20;;;18.70;99.90;;;;;;5036551;28;20057;-67
2021/09/03 11:07:47;;;;;;;16.52;8.45;;;18.50;99.90;;;;;;5056219;28;20041;-67
2021/09/03 11:10:17;;;;;;;16.35;7.68;;;18.60;99.90;;;;;;5033685;28;20168;-67
2021/09/03 11:12:53;;;;;;;14.38;7.78;;;18.60;99.90;;;;;;5040767;28;20073;-67
2021/09/03 11:15:20;;;;;;;10.85;6.07;;;18.80;99.90;;;;;;5039423;28;20098;-68
2021/09/03 11:17:46;;;;;;;12.57;7.32;;;19.00;99.90;;;;;;5056667;28;20110;-67
2021/09/03 11:20:15;;;;;;;15.98;7.40;;;19.00;99.90;;;;;;5047580;28;20457;-67
2021/09/03 11:22:41;;;;;;;15.63;6.80;;;19.20;99.90;;;;;;5049276;28;20049;-67
2021/09/03 11:25:08;;;;;;;14.73;7.68;;;19.60;99.90;;;;;;5058517;28;20041;-67
2021/09/03 11:27:36;;;;;;;15.73;8.27;;;19.50;99.90;;;;;;5051074;28;20090;-68
2021/09/03 11:30:09;;;;;;;14.18;7.22;;;19.40;99.90;;;;;;5061341;28;20428;-67
2021/09/03 11:32:38;;;;;;;17.70;6.75;;;19.20;99.90;;;;;;5048610;28;20436;-67
2021/09/03 11:35:05;;;;;;;14.00;7.35;;;19.50;99.90;;;;;;5033593;28;20338;-67
2021/09/03 11:37:48;;;;;;;15.90;7.15;;;19.50;99.90;;;;;;5035907;28;20065;-68
2021/09/03 11:40:22;;;;;;;15.43;7.05;;;19.60;99.90;;;;;;5031434;28;20037;-67
2021/09/03 11:43:06;;;;;;;14.80;7.97;;;19.70;99.90;;;;;;5045560;28;20046;-68
2021/09/03 11:45:38;;;;;;;16.05;7.70;;;19.60;99.90;;;;;;5028016;28;20049;-68
2021/09/03 11:48:07;;;;;;;14.07;6.90;;;19.60;99.90;;;;;;5045450;28;20405;-68
2021/09/03 11:50:42;;;;;;;13.75;8.25;;;19.30;99.90;;;;;;5039435;28;20065;-67
2021/09/03 11:53:14;;;;;;;12.88;7.40;;;19.60;99.90;;;;;;5031920;28;20046;-67
2021/09/03 11:55:45;;;;;;;14.23;7.55;;;19.80;99.90;;;;;;5047823;28;20063;-68
2021/09/03 11:58:16;;;;;;;14.77;6.93;;;20.20;99.90;;;;;;5050582;28;20046;-67
2021/09/03 12:00:44;;;;;;;16.20;6.63;;;20.60;99.90;;;;;;5049192;28;20033;-67
2021/09/03 12:03:11;;;;;;;13.43;6.88;;;20.30;99.90;;;;;;5038534;28;20042;-67
2021/09/03 12:05:39;;;;;;;11.27;7.22;;;19.60;99.90;;;;;;5038607;28;20042;-67
2021/09/03 12:08:09;;;;;;;17.88;9.23;;;19.80;99.90;;;;;;5051544;28;20045;-67
2021/09/03 12:10:36;;;;;;;14.43;7.28;;;19.70;99.90;;;;;;5043506;28;20110;-67
2021/09/03 12:13:12;;;;;;;17.98;9.15;;;19.90;99.90;;;;;;5040288;28;20224;-67
2021/09/03 12:15:40;;;;;;;16.67;7.28;;;20.30;99.90;;;;;;5042598;28;20048;-67
2021/09/03 12:18:23;;;;;;;15.95;8.50;;;21.30;99.90;;;;;;5054100;28;20045;-67
2021/09/03 12:21:18;;;;;;;15.23;7.95;;;21.60;99.90;;;;;;5042193;28;20125;-68
2021/09/03 12:23:54;;;;;;;11.85;7.55;;;22.50;99.90;;;;;;5055475;28;20061;-67
2021/09/03 12:26:26;;;;;;;14.45;7.55;;;22.10;99.90;;;;;;5049876;28;20110;-67
2021/09/03 12:28:54;;;;;;;13.77;6.50;;;22.00;99.90;;;;;;5041774;28;20092;-68
2021/09/03 12:31:25;;;;;;;16.13;8.38;;;22.10;99.90;;;;;;5044580;28;20515;-68
2021/09/03 12:33:55;;;;;;;16.40;7.53;;;22.50;99.90;;;;;;5062340;28;20064;-68
2021/09/03 12:36:27;;;;;;;15.90;8.13;;;22.70;99.90;;;;;;5046944;28;20057;-68